createdAt,value
2018-05-31T00:03:35.320Z,21.29
2018-05-31T00:07:37.788Z,21.25
2018-05-31T00:11:40.277Z,21.25
2018-05-31T00:15:42.762Z,21.22
2018-05-31T00:19:46.321Z,21.21
2018-05-31T00:23:48.920Z,21.17
2018-05-31T00:27:52.298Z,21.11
2018-05-31T00:31:54.803Z,21.08
2018-05-31T00:35:57.326Z,21.02
2018-05-31T00:39:59.798Z,20.95
2018-05-31T00:44:02.300Z,20.91
2018-05-31T00:48:04.768Z,20.86
2018-05-31T00:52:07.256Z,20.79
2018-05-31T00:56:16.649Z,20.64
2018-05-31T01:00:19.154Z,20.50
2018-05-31T01:04:21.618Z,20.43
2018-05-31T01:08:24.092Z,20.39
2018-05-31T01:12:26.594Z,20.34
2018-05-31T01:16:29.058Z,20.28
2018-05-31T01:20:31.555Z,20.23
2018-05-31T01:24:34.026Z,20.18
2018-05-31T01:28:37.529Z,20.18
2018-05-31T01:32:40.022Z,20.16
2018-05-31T01:36:42.504Z,20.13
2018-05-31T01:40:45.005Z,20.08
2018-05-31T01:44:47.496Z,20.02
2018-05-31T01:48:49.998Z,20.03
2018-05-31T01:52:52.464Z,20.05
2018-05-31T01:56:54.960Z,20.04
2018-05-31T02:00:58.395Z,20.05
2018-05-31T02:05:00.883Z,20.04
2018-05-31T02:09:04.372Z,20.04
2018-05-31T02:13:06.872Z,20.04
2018-05-31T02:17:09.365Z,19.99
2018-05-31T02:21:11.849Z,19.93
2018-05-31T02:25:14.329Z,19.90
2018-05-31T02:29:16.814Z,19.86
2018-05-31T02:33:19.311Z,19.78
2018-05-31T02:37:21.790Z,19.68
2018-05-31T02:41:24.282Z,19.62
2018-05-31T02:45:26.763Z,19.59
2018-05-31T02:49:29.265Z,19.63
2018-05-31T02:53:31.735Z,19.60
2018-05-31T02:57:34.237Z,19.59
2018-05-31T03:01:36.739Z,19.57
2018-05-31T03:05:39.212Z,19.55
2018-05-31T03:09:42.631Z,19.49
2018-05-31T03:13:45.140Z,19.47
2018-05-31T03:17:47.827Z,19.50
2018-05-31T03:21:50.611Z,19.54
2018-05-31T03:25:53.109Z,19.59
2018-05-31T03:29:56.462Z,19.64
2018-05-31T03:33:58.968Z,19.70
2018-05-31T03:38:01.453Z,19.73
2018-05-31T03:42:03.944Z,19.76
2018-05-31T03:46:06.443Z,19.77
2018-05-31T03:50:08.976Z,19.75
2018-05-31T03:54:11.467Z,19.75
2018-05-31T03:58:13.973Z,19.71
2018-05-31T04:02:16.491Z,19.62
2018-05-31T04:06:18.966Z,19.54
2018-05-31T04:10:21.462Z,19.52
2018-05-31T04:14:29.857Z,19.48
2018-05-31T04:18:32.323Z,19.42
2018-05-31T04:22:34.816Z,19.46
2018-05-31T04:26:37.334Z,19.51
2018-05-31T04:30:39.817Z,19.55
2018-05-31T04:34:42.334Z,19.59
2018-05-31T04:38:44.855Z,19.65
2018-05-31T04:42:47.332Z,19.72
2018-05-31T04:46:49.857Z,19.80
2018-05-31T04:50:52.347Z,19.85
2018-05-31T04:54:54.830Z,19.94
2018-05-31T04:58:57.335Z,20.05
2018-05-31T05:02:59.838Z,20.17
2018-05-31T05:07:02.343Z,20.29
2018-05-31T05:11:04.820Z,20.48
2018-05-31T05:15:07.319Z,20.69
2018-05-31T05:19:09.832Z,20.89
2018-05-31T05:23:12.331Z,21.08
2018-05-31T05:27:14.835Z,21.35
2018-05-31T05:31:17.328Z,21.67
2018-05-31T05:35:19.836Z,21.98
2018-05-31T05:39:22.337Z,22.25
2018-05-31T05:43:24.841Z,22.54
2018-05-31T05:47:27.347Z,22.85
2018-05-31T05:51:29.827Z,23.18
2018-05-31T05:55:32.323Z,23.44
2018-05-31T05:59:34.836Z,23.70
2018-05-31T06:03:37.343Z,23.88
2018-05-31T06:07:39.854Z,24.11
2018-05-31T06:11:42.344Z,24.37
2018-05-31T06:15:44.847Z,24.63
2018-05-31T06:19:47.361Z,24.87
2018-05-31T06:23:49.806Z,25.10
2018-05-31T06:27:52.312Z,25.25
2018-05-31T06:31:54.816Z,25.37
2018-05-31T06:35:57.324Z,25.46
2018-05-31T06:39:59.829Z,25.69
2018-05-31T06:44:02.322Z,25.89
2018-05-31T06:48:04.780Z,26.06
2018-05-31T06:52:07.278Z,26.18
2018-05-31T06:56:10.696Z,26.26
2018-05-31T07:00:13.184Z,26.36
2018-05-31T07:04:15.683Z,26.44
2018-05-31T07:08:18.141Z,26.52
2018-05-31T07:12:20.636Z,26.59
2018-05-31T07:16:23.193Z,26.73
2018-05-31T07:20:25.653Z,26.85
2018-05-31T07:24:28.139Z,26.98
2018-05-31T07:28:30.625Z,27.17
2018-05-31T07:32:33.107Z,27.33
2018-05-31T07:36:35.637Z,27.50
2018-05-31T07:40:38.163Z,27.58
2018-05-31T07:44:40.650Z,27.57
2018-05-31T07:48:43.131Z,27.58
2018-05-31T07:52:45.651Z,27.70
2018-05-31T07:56:48.116Z,27.82
2018-05-31T08:00:50.637Z,27.93
2018-05-31T08:04:53.139Z,28.11
2018-05-31T08:08:55.634Z,28.27
2018-05-31T08:12:58.105Z,28.42
2018-05-31T08:17:00.593Z,28.54
2018-05-31T08:21:03.083Z,28.50
2018-05-31T08:25:05.582Z,28.52
2018-05-31T08:29:08.041Z,28.57
2018-05-31T08:33:10.831Z,28.71
2018-05-31T08:37:13.313Z,28.88
2018-05-31T08:41:15.799Z,28.97
2018-05-31T08:45:18.302Z,29.06
2018-05-31T08:49:20.789Z,29.11
2018-05-31T08:53:23.276Z,29.22
2018-05-31T08:57:26.715Z,29.37
2018-05-31T09:01:29.195Z,29.51
2018-05-31T09:05:31.679Z,29.59
2018-05-31T09:09:34.172Z,29.65
2018-05-31T09:13:36.653Z,29.81
2018-05-31T09:17:39.153Z,29.94
2018-05-31T09:21:41.647Z,30.05
2018-05-31T09:25:44.144Z,30.07
2018-05-31T09:29:46.629Z,30.07
2018-05-31T09:33:49.118Z,30.14
2018-05-31T09:37:51.586Z,30.18
2018-05-31T09:41:54.065Z,30.33
2018-05-31T09:45:56.546Z,30.41
2018-05-31T09:49:59.041Z,30.51
2018-05-31T09:54:01.561Z,30.63
2018-05-31T09:58:04.042Z,30.82
2018-05-31T10:02:06.526Z,31.00
2018-05-31T10:06:09.018Z,31.21
2018-05-31T10:10:11.506Z,31.32
2018-05-31T10:14:13.976Z,31.31
2018-05-31T10:18:16.444Z,31.34
2018-05-31T10:22:18.931Z,31.38
2018-05-31T10:26:21.416Z,31.31
2018-05-31T10:30:23.916Z,31.39
2018-05-31T10:34:26.385Z,31.44
2018-05-31T10:38:28.869Z,31.55
2018-05-31T10:42:31.347Z,31.74
2018-05-31T10:46:33.887Z,31.87
2018-05-31T10:50:36.315Z,31.95
2018-05-31T10:54:38.792Z,31.98
2018-05-31T10:58:41.287Z,31.98
2018-05-31T11:02:43.759Z,32.04
2018-05-31T11:06:46.246Z,32.07
2018-05-31T11:10:48.736Z,32.09
2018-05-31T11:14:51.278Z,32.14
2018-05-31T11:18:53.709Z,32.12
2018-05-31T11:22:56.194Z,32.13
2018-05-31T11:26:58.680Z,32.04
2018-05-31T11:31:01.167Z,32.18
2018-05-31T11:35:03.648Z,32.34
2018-05-31T11:39:06.133Z,32.43
2018-05-31T11:43:08.633Z,32.46
2018-05-31T11:47:11.116Z,32.54
2018-05-31T11:51:13.608Z,32.63
2018-05-31T11:55:16.073Z,32.52
2018-05-31T11:59:18.571Z,32.49
2018-05-31T12:03:21.081Z,32.47
2018-05-31T12:07:23.573Z,32.55
2018-05-31T12:11:26.031Z,32.52
2018-05-31T12:15:28.515Z,32.41
2018-05-31T12:19:31.003Z,32.54
2018-05-31T12:23:33.483Z,32.63
2018-05-31T12:27:35.973Z,32.70
2018-05-31T12:31:38.432Z,32.55
2018-05-31T12:35:40.922Z,32.44
2018-05-31T12:39:43.399Z,32.45
2018-05-31T12:43:45.883Z,32.53
2018-05-31T12:47:48.422Z,32.57
2018-05-31T12:51:50.875Z,32.53
2018-05-31T12:55:53.369Z,32.46
2018-05-31T12:59:55.856Z,32.41
2018-05-31T13:03:58.335Z,32.52
2018-05-31T13:08:00.820Z,32.57
2018-05-31T13:12:03.312Z,32.65
2018-05-31T13:16:05.773Z,32.62
2018-05-31T13:20:08.247Z,32.67
2018-05-31T13:24:10.728Z,32.73
2018-05-31T13:28:13.222Z,32.83
2018-05-31T13:32:15.699Z,32.90
2018-05-31T13:36:18.190Z,32.90
2018-05-31T13:40:20.660Z,32.88
2018-05-31T13:44:23.144Z,32.91
2018-05-31T13:48:25.634Z,32.94
2018-05-31T13:52:28.113Z,32.89
2018-05-31T13:56:30.612Z,32.89
2018-05-31T14:00:33.081Z,32.96
2018-05-31T14:04:35.568Z,32.95
2018-05-31T14:08:38.056Z,32.90
2018-05-31T14:12:40.566Z,32.89
2018-05-31T14:16:43.026Z,32.86
2018-05-31T14:20:45.509Z,32.87
2018-05-31T14:24:47.993Z,32.80
2018-05-31T14:28:50.469Z,32.74
2018-05-31T14:32:52.959Z,32.73
2018-05-31T14:36:55.446Z,32.71
2018-05-31T14:40:57.936Z,32.67
2018-05-31T14:45:00.393Z,32.67
2018-05-31T14:49:02.913Z,32.61
2018-05-31T14:53:05.384Z,32.53
2018-05-31T14:57:07.844Z,32.45
2018-05-31T15:01:10.326Z,32.36
2018-05-31T15:05:12.815Z,32.36
2018-05-31T15:09:15.305Z,32.35
2018-05-31T15:13:17.791Z,32.32
2018-05-31T15:17:20.247Z,32.25
2018-05-31T15:21:22.745Z,32.14
2018-05-31T15:25:25.196Z,32.13
2018-05-31T15:29:27.679Z,32.11
2018-05-31T15:33:30.165Z,32.04
2018-05-31T15:37:32.639Z,32.03
2018-05-31T15:41:35.123Z,31.89
2018-05-31T15:45:37.611Z,31.76
2018-05-31T15:49:40.074Z,31.63
2018-05-31T15:53:42.557Z,31.50
2018-05-31T15:57:45.031Z,31.43
2018-05-31T16:01:47.515Z,31.41
2018-05-31T16:05:50.007Z,31.33
2018-05-31T16:09:52.495Z,31.28
2018-05-31T16:13:54.981Z,31.18
2018-05-31T16:17:57.468Z,31.11
2018-05-31T16:21:59.954Z,31.06
2018-05-31T16:26:02.423Z,30.98
2018-05-31T16:30:04.908Z,30.97
2018-05-31T16:34:07.395Z,30.95
2018-05-31T16:38:09.861Z,30.92
2018-05-31T16:42:12.355Z,30.82
2018-05-31T16:46:14.846Z,30.75
2018-05-31T16:50:17.332Z,30.70
2018-05-31T16:54:19.814Z,30.67
2018-05-31T16:58:22.303Z,30.64
2018-05-31T17:02:24.779Z,30.60
2018-05-31T17:06:27.264Z,30.57
2018-05-31T17:10:29.755Z,30.51
2018-05-31T17:14:32.225Z,30.44
2018-05-31T17:18:34.722Z,30.40
2018-05-31T17:22:37.212Z,30.35
2018-05-31T17:26:39.682Z,30.29
2018-05-31T17:30:42.176Z,30.20
2018-05-31T17:34:44.657Z,30.11
2018-05-31T17:38:47.144Z,30.04
2018-05-31T17:42:49.618Z,29.96
2018-05-31T17:46:52.125Z,29.88
2018-05-31T17:50:54.604Z,29.78
2018-05-31T17:54:57.084Z,29.70
2018-05-31T17:58:59.569Z,29.64
2018-05-31T18:03:02.064Z,29.59
2018-05-31T18:07:04.576Z,29.49
2018-05-31T18:11:07.069Z,29.40
2018-05-31T18:15:09.534Z,29.34
2018-05-31T18:19:12.022Z,29.24
2018-05-31T18:23:14.521Z,29.14
2018-05-31T18:27:17.015Z,29.06
2018-05-31T18:31:19.515Z,29.00
2018-05-31T18:35:22.006Z,28.91
2018-05-31T18:39:24.494Z,28.78
2018-05-31T18:43:26.990Z,28.64
2018-05-31T18:47:29.533Z,28.53
2018-05-31T18:51:31.995Z,28.42
2018-05-31T18:55:34.489Z,28.30
2018-05-31T18:59:36.952Z,28.12
2018-05-31T19:03:39.440Z,27.94
2018-05-31T19:07:42.936Z,27.85
2018-05-31T19:11:45.435Z,27.75
2018-05-31T19:15:47.910Z,27.67
2018-05-31T19:19:55.345Z,27.57
2018-05-31T19:23:57.835Z,27.49
2018-05-31T19:28:00.308Z,27.39
2018-05-31T19:32:02.791Z,27.34
2018-05-31T19:36:11.545Z,27.32
2018-05-31T19:40:14.025Z,27.27
2018-05-31T19:44:22.049Z,27.20
2018-05-31T19:48:24.550Z,27.12
2018-05-31T19:52:32.665Z,27.03
2018-05-31T19:56:35.124Z,26.94
2018-05-31T20:00:43.135Z,26.84
2018-05-31T20:04:45.594Z,26.76
2018-05-31T20:08:48.075Z,26.69
2018-05-31T20:12:50.539Z,26.64
2018-05-31T20:16:53.027Z,26.57
2018-05-31T20:20:55.504Z,26.52
2018-05-31T20:24:57.993Z,26.45
2018-05-31T20:29:00.475Z,26.42
2018-05-31T20:33:02.945Z,26.34
2018-05-31T20:37:05.434Z,26.28
2018-05-31T20:41:07.934Z,26.22
2018-05-31T20:45:10.421Z,26.13
2018-05-31T20:49:12.923Z,26.06
2018-05-31T20:53:15.419Z,25.97
2018-05-31T20:57:17.886Z,25.88
2018-05-31T21:01:20.378Z,25.82
2018-05-31T21:05:22.840Z,25.74
2018-05-31T21:09:25.328Z,25.71
2018-05-31T21:13:27.833Z,25.68
2018-05-31T21:17:30.284Z,25.63
2018-05-31T21:21:32.771Z,25.58
2018-05-31T21:25:35.250Z,25.55
2018-05-31T21:29:37.770Z,25.53
2018-05-31T21:33:40.240Z,25.46
2018-05-31T21:37:42.738Z,25.39
2018-05-31T21:41:45.229Z,25.34
2018-05-31T21:45:47.714Z,25.30
2018-05-31T21:49:50.224Z,25.18
2018-05-31T21:53:52.683Z,25.07
2018-05-31T21:57:55.186Z,24.97
2018-05-31T22:01:57.666Z,24.92
2018-05-31T22:06:00.145Z,24.87
2018-05-31T22:10:02.631Z,24.78
2018-05-31T22:14:05.119Z,24.71
2018-05-31T22:18:07.615Z,24.65
2018-05-31T22:22:10.095Z,24.59
2018-05-31T22:26:12.591Z,24.46
2018-05-31T22:30:15.052Z,24.37
2018-05-31T22:34:17.535Z,24.29
2018-05-31T22:38:20.030Z,24.24
2018-05-31T22:42:22.504Z,24.23
2018-05-31T22:46:24.991Z,24.23
2018-05-31T22:50:27.468Z,24.22
2018-05-31T22:54:29.968Z,24.16
2018-05-31T22:58:32.451Z,24.12
2018-05-31T23:02:34.936Z,24.08
2018-05-31T23:06:37.419Z,24.01
2018-05-31T23:10:39.918Z,23.87
2018-05-31T23:14:42.378Z,23.76
2018-05-31T23:18:44.850Z,23.74
2018-05-31T23:22:47.361Z,23.67
2018-05-31T23:26:49.839Z,23.62
2018-05-31T23:30:52.335Z,23.58
2018-05-31T23:34:54.819Z,23.52
2018-05-31T23:38:57.307Z,23.42
2018-05-31T23:42:59.786Z,23.36
2018-05-31T23:47:02.248Z,23.34
2018-05-31T23:51:04.734Z,23.29
2018-05-31T23:55:07.217Z,23.25
2018-05-31T23:59:09.713Z,23.19
